Time;durP1;ratioP1;P1;durP2;ratioP2;P2;SDS_P1;SDS_P2;PMS_P1;PMS_P2;Temp;Humidity;BMP_temperature;BMP_pressure;BME280_temperature;BME280_humidity;BME280_pressure;Samples;Min_cycle;Max_cycle;Signal;HPM_P1;HPM_P2
2023/04/25 00:00:15;;;;;;;0.00;0.00;;;;;;;9.74;59.51;101173.28;7354066;19;20014;-62
2023/04/25 00:02:41;;;;;;;0.00;0.00;;;;;;;10.05;59.36;101247.69;7356994;19;20022;-61
2023/04/25 00:05:07;;;;;;;0.00;0.00;;;;;;;9.99;59.21;101250.38;7353750;19;20017;-62
2023/04/25 00:07:33;;;;;;;0.00;0.00;;;;;;;9.93;60.45;101245.22;7354206;19;20018;-62
2023/04/25 00:09:59;;;;;;;0.00;0.00;;;;;;;9.86;60.60;101252.25;7352879;19;20743;-62
2023/04/25 00:12:24;;;;;;;0.00;0.00;;;;;;;9.75;60.88;101232.38;7353595;19;20012;-62
2023/04/25 00:14:50;;;;;;;0.00;0.00;;;;;;;9.85;60.72;101249.66;7357999;19;20027;-62
2023/04/25 00:17:16;;;;;;;0.00;0.00;;;;;;;9.82;60.86;101260.13;7355336;19;20014;-62
2023/04/25 00:19:44;;;;;;;0.00;0.00;;;;;;;9.82;61.25;101265.34;7356185;19;20014;-62
2023/04/25 00:22:10;;;;;;;0.00;0.00;;;;;;;9.79;60.85;101263.63;7352024;19;20015;-62
2023/04/25 00:24:36;;;;;;;0.00;0.00;;;;;;;9.79;61.33;101265.38;7355085;19;20347;-62
2023/04/25 00:27:01;;;;;;;0.00;0.00;;;;;;;9.76;61.17;101273.22;7353802;19;20030;-62
2023/04/25 00:29:26;;;;;;;0.00;0.00;;;;;;;9.74;61.38;101256.75;7354733;19;20018;-62
2023/04/25 00:31:52;;;;;;;0.00;0.00;;;;;;;9.71;61.24;101259.38;7353347;19;21200;-62
2023/04/25 00:34:17;;;;;;;0.00;0.00;;;;;;;9.69;60.97;101258.53;7354220;19;20011;-62
2023/04/25 00:36:42;;;;;;;0.00;0.00;;;;;;;9.67;60.90;101257.66;7353941;19;20569;-62
2023/04/25 00:39:08;;;;;;;0.00;0.00;;;;;;;9.64;60.94;101252.50;7355421;19;20063;-62
2023/04/25 00:41:33;;;;;;;0.00;0.00;;;;;;;9.61;60.85;101251.63;7349917;19;20683;-62
2023/04/25 00:44:00;;;;;;;0.00;0.00;;;;;;;9.44;60.74;101235.31;7350680;19;20006;-62
2023/04/25 00:46:26;;;;;;;0.00;0.00;;;;;;;9.54;61.14;101260.41;7346993;19;20033;-62
2023/04/25 00:48:51;;;;;;;0.00;0.00;;;;;;;9.52;60.79;101267.34;7324393;19;20565;-61
2023/04/25 00:51:20;;;;;;;0.00;0.00;;;;;;;9.49;60.78;101262.19;7333601;19;20010;-62
2023/04/25 00:53:46;;;;;;;0.00;0.00;;;;;;;9.45;61.27;101257.03;7340362;19;20030;-62
2023/04/25 00:56:12;;;;;;;0.00;0.00;;;;;;;9.41;61.04;101269.22;7340377;19;20011;-62
2023/04/25 00:58:38;;;;;;;0.00;0.00;;;;;;;9.38;60.90;101274.47;7337843;19;20009;-62
2023/04/25 01:01:03;;;;;;;0.00;0.00;;;;;;;9.35;61.04;101269.25;7335020;19;20835;-62
2023/04/25 01:03:32;;;;;;;0.00;0.00;;;;;;;9.32;60.72;101264.06;7337617;19;20030;-62
2023/04/25 01:05:58;;;;;;;0.00;0.00;;;;;;;9.27;61.05;101266.72;7338783;19;20018;-62
2023/04/25 01:08:25;;;;;;;0.00;0.00;;;;;;;9.25;61.34;101267.63;7337954;19;20503;-62
2023/04/25 01:10:50;;;;;;;0.00;0.00;;;;;;;9.12;61.05;101253.81;7339611;19;20007;-62
2023/04/25 01:13:16;;;;;;;0.03;0.03;;;;;;;9.16;60.86;101268.53;7336582;19;20022;-62
2023/04/25 01:15:42;;;;;;;0.00;0.00;;;;;;;9.13;60.83;101280.75;7338110;19;20014;-62
2023/04/25 01:18:07;;;;;;;0.00;0.00;;;;;;;9.08;61.31;101271.22;7337708;19;20011;-62
2023/04/25 01:20:33;;;;;;;0.00;0.00;;;;;;;9.05;62.12;101275.59;7338765;19;20018;-62
2023/04/25 01:22:59;;;;;;;0.00;0.00;;;;;;;9.00;62.15;101272.16;7339829;19;20733;-62
2023/04/25 01:25:25;;;;;;;0.00;0.00;;;;;;;8.96;62.75;101275.63;7338538;19;20091;-62
2023/04/25 01:27:50;;;;;;;0.10;0.10;;;;;;;8.92;62.81;101280.03;7338016;19;20013;-62
2023/04/25 01:30:16;;;;;;;0.00;0.00;;;;;;;8.84;62.99;101271.38;7336011;19;20011;-62
2023/04/25 01:32:42;;;;;;;0.00;0.00;;;;;;;8.81;63.10;101266.19;7333020;19;20782;-62
2023/04/25 01:35:10;;;;;;;0.00;0.00;;;;;;;8.77;63.40;101265.38;7336989;19;20010;-62
2023/04/25 01:37:43;;;;;;;0.00;0.00;;;;;;;8.72;63.09;101267.13;7337161;19;20014;-62
2023/04/25 01:40:10;;;;;;;0.05;0.05;;;;;;;8.67;63.55;101266.28;7338250;19;20614;-61
2023/04/25 01:42:37;;;;;;;;;;;;;;;8.63;61.48;101261.97;7338888;19;20015;-62
2023/04/25 01:45:03;;;;;;;0.00;0.00;;;;;;;8.56;63.18;101253.31;7339431;19;19958;-62
2023/04/25 01:47:29;;;;;;;0.00;0.00;;;;;;;8.47;63.23;101248.19;7337417;19;20025;-62
2023/04/25 01:49:55;;;;;;;0.00;0.00;;;;;;;8.45;63.24;101251.66;7336786;19;20048;-63
2023/04/25 01:52:20;;;;;;;0.00;0.00;;;;;;;8.39;62.96;101249.09;7336215;19;20038;-62
2023/04/25 01:54:46;;;;;;;0.00;0.00;;;;;;;8.34;63.03;101246.47;7337327;19;20807;-62
2023/04/25 01:57:12;;;;;;;0.00;0.00;;;;;;;8.29;63.11;101245.63;7337801;19;20793;-62
2023/04/25 01:59:37;;;;;;;0.00;0.00;;;;;;;8.12;62.88;101226.63;7341925;19;20030;-62
2023/04/25 02:02:03;;;;;;;0.00;0.00;;;;;;;8.10;62.67;101233.56;7348935;19;20018;-62
2023/04/25 02:04:32;;;;;;;0.00;0.00;;;;;;;8.12;62.54;101242.25;7353947;19;20018;-62
2023/04/25 02:06:58;;;;;;;0.00;0.00;;;;;;;8.12;63.03;101258.72;7346147;19;20045;-62
2023/04/25 02:09:23;;;;;;;0.00;0.00;;;;;;;8.07;63.08;101256.13;7348380;19;20022;-62
2023/04/25 02:11:49;;;;;;;0.00;0.00;;;;;;;8.03;62.92;101259.59;7353847;19;20816;-61
2023/04/25 02:14:15;;;;;;;0.00;0.00;;;;;;;8.00;63.04;101263.94;7350614;19;20015;-61
2023/04/25 02:16:40;;;;;;;0.00;0.00;;;;;;;7.96;62.69;101260.50;7352605;19;20011;-61
2023/04/25 02:19:06;;;;;;;0.00;0.00;;;;;;;7.92;63.06;101253.56;7351652;19;20577;-61
2023/04/25 02:21:32;;;;;;;0.00;0.00;;;;;;;7.89;63.05;101261.38;7352094;19;20045;-61
2023/04/25 02:23:57;;;;;;;0.00;0.00;;;;;;;7.74;63.75;101251.00;7351790;19;20014;-61
2023/04/25 02:26:23;;;;;;;0.00;0.00;;;;;;;7.80;63.17;101258.78;7352828;19;20766;-64
2023/04/25 02:28:49;;;;;;;0.00;0.00;;;;;;;7.69;63.69;101244.94;7348095;19;20530;-63
2023/04/25 02:31:15;;;;;;;0.08;0.08;;;;;;;7.74;63.89;101261.41;7353195;19;20033;-63
2023/04/25 02:33:40;;;;;;;0.00;0.00;;;;;;;7.71;63.96;101261.44;7346527;19;20014;-64
2023/04/25 02:36:06;;;;;;;0.00;0.00;;;;;;;7.68;63.85;101269.22;7352311;19;20019;-63
2023/04/25 02:38:31;;;;;;;0.00;0.00;;;;;;;7.62;63.99;101262.31;7340414;19;20003;-63
2023/04/25 02:40:57;;;;;;;0.00;0.00;;;;;;;7.60;64.30;101264.03;7346954;19;20457;-63
2023/04/25 02:43:22;;;;;;;0.00;0.00;;;;;;;7.56;64.63;101264.06;7349835;19;20009;-63
2023/04/25 02:45:48;;;;;;;0.00;0.00;;;;;;;7.52;64.69;101260.59;7352327;19;20014;-63
2023/04/25 02:48:13;;;;;;;0.00;0.00;;;;;;;7.48;64.70;101264.91;7351777;19;20013;-63
2023/04/25 02:50:39;;;;;;;0.00;0.00;;;;;;;7.45;65.12;101264.03;7345666;19;20022;-63
2023/04/25 02:53:04;;;;;;;0.00;0.00;;;;;;;7.41;65.01;101265.81;7350624;19;20020;-63
2023/04/25 02:55:29;;;;;;;0.00;0.00;;;;;;;7.37;65.24;101260.59;7350979;19;20016;-64
2023/04/25 02:57:55;;;;;;;0.00;0.00;;;;;;;7.33;65.10;101254.53;7349057;19;20030;-63
2023/04/25 03:00:22;;;;;;;0.00;0.00;;;;;;;7.27;65.02;101257.13;7350011;19;20027;-63
2023/04/25 03:02:47;;;;;;;0.00;0.00;;;;;;;7.25;65.20;101251.94;7345507;19;20802;-63
2023/04/25 03:05:12;;;;;;;0.10;0.10;;;;;;;7.18;64.92;101254.53;7343499;19;20007;-63
2023/04/25 03:07:39;;;;;;;0.00;0.00;;;;;;;7.20;64.62;101261.47;7360211;19;20010;-63
2023/04/25 03:10:06;;;;;;;0.00;0.00;;;;;;;7.16;64.27;101261.47;7353562;19;21233;-63
2023/04/25 03:12:31;;;;;;;0.00;0.00;;;;;;;7.14;64.30;101258.00;7358525;19;20039;-62
2023/04/25 03:14:57;;;;;;;0.00;0.00;;;;;;;7.09;64.29;101259.72;7357938;19;20652;-63
2023/04/25 03:17:22;;;;;;;0.10;0.10;;;;;;;7.08;64.21;101258.00;7358497;19;20042;-63
2023/04/25 03:19:48;;;;;;;0.00;0.00;;;;;;;7.05;64.62;101258.00;7340910;19;20078;-62
2023/04/25 03:22:13;;;;;;;0.00;0.00;;;;;;;7.01;64.32;101252.81;7355405;19;20010;-64
2023/04/25 03:24:39;;;;;;;0.10;0.10;;;;;;;6.53;64.38;101178.31;7356742;19;20349;-63
2023/04/25 03:27:04;;;;;;;0.00;0.00;;;;;;;6.95;64.39;101247.63;7358775;19;20674;-62
2023/04/25 03:29:29;;;;;;;0.00;0.00;;;;;;;6.92;64.05;101250.19;7358217;19;20018;-63
2023/04/25 03:31:55;;;;;;;0.00;0.00;;;;;;;6.88;64.26;101245.84;7357995;19;20714;-63
2023/04/25 03:34:21;;;;;;;0.00;0.00;;;;;;;6.86;64.08;101257.13;7354532;19;21082;-63
2023/04/25 03:36:47;;;;;;;0.00;0.00;;;;;;;6.78;63.99;101246.72;7359739;19;20006;-63
2023/04/25 03:39:12;;;;;;;0.00;0.00;;;;;;;6.79;63.76;101256.22;7355246;19;20034;-63
2023/04/25 03:41:37;;;;;;;0.00;0.00;;;;;;;6.78;64.50;101259.69;7353425;19;20087;-63
2023/04/25 03:44:03;;;;;;;0.00;0.00;;;;;;;6.66;64.79;101239.78;7358710;19;20045;-62
2023/04/25 03:46:28;;;;;;;0.00;0.00;;;;;;;6.72;64.26;101254.50;7359583;19;20015;-63
2023/04/25 03:48:54;;;;;;;0.00;0.00;;;;;;;6.70;64.56;101256.22;7360095;19;21082;-63
2023/04/25 03:51:19;;;;;;;0.00;0.00;;;;;;;6.67;64.69;101256.22;7357096;19;20026;-63
2023/04/25 03:53:45;;;;;;;0.00;0.00;;;;;;;6.63;64.70;101257.06;7360007;19;20021;-63
2023/04/25 03:56:10;;;;;;;0.00;0.00;;;;;;;6.58;65.21;101245.81;7356124;19;20466;-63
2023/04/25 03:58:36;;;;;;;0.00;0.00;;;;;;;6.58;64.96;101251.00;7358952;19;20007;-62
2023/04/25 04:01:07;;;;;;;0.00;0.00;;;;;;;6.57;65.05;101251.84;7355983;19;20603;-63
2023/04/25 04:03:32;;;;;;;0.00;0.00;;;;;;;6.52;64.79;101250.97;7356992;19;21684;-63
2023/04/25 04:05:59;;;;;;;0.00;0.00;;;;;;;6.49;64.80;101247.53;7358343;19;20027;-63
2023/04/25 04:08:24;;;;;;;0.08;0.08;;;;;;;6.47;65.36;101248.38;7356260;19;20466;-63
2023/04/25 04:10:50;;;;;;;0.00;0.00;;;;;;;6.45;65.42;101250.09;7356606;19;20042;-63
2023/04/25 04:13:15;;;;;;;0.10;0.10;;;;;;;6.41;65.37;101253.53;7357556;19;20042;-63
2023/04/25 04:15:40;;;;;;;0.00;0.00;;;;;;;6.40;65.08;101262.19;7356079;19;20010;-62
2023/04/25 04:18:06;;;;;;;0.00;0.00;;;;;;;6.36;65.11;101250.94;7358335;19;20372;-63
2023/04/25 04:20:31;;;;;;;0.00;0.00;;;;;;;6.34;65.15;101257.00;7346999;19;20018;-63
2023/04/25 04:22:57;;;;;;;0.00;0.00;;;;;;;6.32;65.32;101258.69;7360167;19;20105;-63
2023/04/25 04:25:24;;;;;;;0.00;0.00;;;;;;;6.29;65.10;101253.53;7351948;19;20014;-63
2023/04/25 04:27:54;;;;;;;0.00;0.00;;;;;;;6.25;65.23;101257.81;7359837;19;20014;-63
2023/04/25 04:30:21;;;;;;;0.05;0.05;;;;;;;6.22;65.87;101252.59;7355520;19;20010;-63
2023/04/25 04:32:47;;;;;;;0.00;0.00;;;;;;;6.19;65.60;101261.25;7353362;19;20174;-63
2023/04/25 04:35:13;;;;;;;0.00;0.00;;;;;;;6.17;65.94;101259.50;7355181;19;20014;-62
2023/04/25 04:37:39;;;;;;;0.00;0.00;;;;;;;6.14;66.07;101259.50;7357291;19;20006;-63
2023/04/25 04:40:05;;;;;;;0.00;0.00;;;;;;;6.10;66.39;101257.75;7355302;19;20098;-62
2023/04/25 04:42:31;;;;;;;0.00;0.00;;;;;;;6.10;66.02;101262.94;7358742;19;20010;-63
2023/04/25 04:44:58;;;;;;;0.00;0.00;;;;;;;6.08;66.17;101262.03;7358477;19;20006;-62
2023/04/25 04:47:24;;;;;;;0.00;0.00;;;;;;;6.05;66.15;101256.88;7358030;19;20078;-63
2023/04/25 04:49:49;;;;;;;0.00;0.00;;;;;;;6.02;66.22;101262.88;7355113;19;20568;-62
2023/04/25 04:52:15;;;;;;;0.00;0.00;;;;;;;5.99;66.08;101270.66;7357641;19;20018;-63
2023/04/25 04:54:40;;;;;;;0.10;0.10;;;;;;;5.97;65.81;101270.63;7358619;19;20042;-63
2023/04/25 04:57:05;;;;;;;0.00;0.00;;;;;;;5.93;65.52;101271.50;7348729;19;20429;-63
2023/04/25 04:59:31;;;;;;;0.00;0.00;;;;;;;5.91;65.80;101268.03;7358234;19;20010;-63
2023/04/25 05:01:56;;;;;;;0.00;0.00;;;;;;;5.90;65.57;101276.63;7353810;19;20018;-63
2023/04/25 05:04:22;;;;;;;0.00;0.00;;;;;;;5.84;65.80;101271.41;7355762;19;20019;-63
2023/04/25 05:06:47;;;;;;;0.00;0.00;;;;;;;5.84;65.81;101276.59;7358212;19;20022;-63
2023/04/25 05:09:13;;;;;;;0.00;0.00;;;;;;;5.82;66.10;101272.25;7359727;19;20018;-64
2023/04/25 05:11:38;;;;;;;0.00;0.00;;;;;;;5.81;65.96;101275.72;7356591;19;20003;-63
2023/04/25 05:14:04;;;;;;;0.00;0.00;;;;;;;5.78;66.02;101276.56;7343793;19;20114;-63
2023/04/25 05:16:29;;;;;;;0.00;0.00;;;;;;;5.76;66.09;101277.41;7356747;19;20018;-63
2023/04/25 05:18:55;;;;;;;0.00;0.00;;;;;;;5.75;66.47;101280.84;7357819;19;20517;-63
2023/04/25 05:21:20;;;;;;;0.10;0.10;;;;;;;5.73;66.38;101283.44;7354324;19;20014;-62
2023/04/25 05:23:45;;;;;;;0.03;0.03;;;;;;;5.71;66.67;101290.31;7353178;19;20820;-63
2023/04/25 05:26:13;;;;;;;0.00;0.00;;;;;;;5.69;66.59;101284.28;7348995;19;20034;-63
2023/04/25 05:28:40;;;;;;;0.05;0.05;;;;;;;5.68;66.67;101277.38;7354910;19;20107;-63
2023/04/25 05:31:06;;;;;;;0.03;0.03;;;;;;;5.66;66.60;101287.69;7355371;19;20018;-63
2023/04/25 05:33:32;;;;;;;0.00;0.00;;;;;;;5.66;66.66;101289.44;7357984;19;20014;-63
2023/04/25 05:35:57;;;;;;;0.00;0.00;;;;;;;5.64;66.69;101284.25;7354115;19;20021;-63
2023/04/25 05:38:22;;;;;;;0.08;0.08;;;;;;;5.64;66.62;101285.97;7354346;19;20013;-63
2023/04/25 05:40:48;;;;;;;0.00;0.00;;;;;;;5.63;66.81;101286.84;7352349;19;20014;-63
2023/04/25 05:43:13;;;;;;;0.05;0.05;;;;;;;5.62;66.54;101285.06;7347836;19;20070;-62
2023/04/25 05:45:39;;;;;;;0.00;0.00;;;;;;;5.61;66.85;101293.72;7349207;19;20030;-63
2023/04/25 05:48:04;;;;;;;0.10;0.10;;;;;;;5.62;66.59;101290.25;7356905;19;20593;-63
2023/04/25 05:50:30;;;;;;;0.00;0.00;;;;;;;5.60;66.62;101297.16;7353163;19;25773;-62
2023/04/25 05:52:55;;;;;;;0.10;0.10;;;;;;;5.56;67.15;101280.72;7357095;19;20089;-63
2023/04/25 05:55:20;;;;;;;0.00;0.00;;;;;;;5.56;67.25;101282.44;7351822;19;20460;-62
2023/04/25 05:57:46;;;;;;;0.10;0.10;;;;;;;5.61;66.92;101298.88;7346848;19;20017;-63
2023/04/25 06:00:15;;;;;;;0.00;0.00;;;;;;;5.57;67.25;101287.63;7351045;19;20025;-63
2023/04/25 06:02:41;;;;;;;0.00;0.00;;;;;;;5.62;67.26;101300.63;7352952;19;20044;-63
2023/04/25 06:05:07;;;;;;;0.10;0.10;;;;;;;5.61;67.27;101304.94;7350045;19;20796;-63
2023/04/25 06:07:32;;;;;;;0.10;0.10;;;;;;;5.64;67.34;101304.09;7355304;19;20006;-63
2023/04/25 06:09:58;;;;;;;0.00;0.00;;;;;;;5.65;67.26;101311.88;7349594;19;20014;-63
2023/04/25 06:12:23;;;;;;;0.00;0.00;;;;;;;5.68;67.04;101306.72;7349606;19;20037;-63
2023/04/25 06:14:49;;;;;;;0.00;0.00;;;;;;;5.70;66.87;101309.31;7351863;19;20010;-63
2023/04/25 06:17:14;;;;;;;0.10;0.10;;;;;;;5.71;67.23;101305.88;7353590;19;20018;-63
2023/04/25 06:19:40;;;;;;;0.00;0.00;;;;;;;5.76;66.78;101311.94;7350174;19;20007;-64
2023/04/25 06:22:07;;;;;;;0.00;0.00;;;;;;;5.79;66.95;101306.81;7344724;19;20014;-63
2023/04/25 06:24:32;;;;;;;0.00;0.00;;;;;;;5.84;67.08;101312.88;7349925;19;20499;-63
2023/04/25 06:26:57;;;;;;;0.00;0.00;;;;;;;5.87;67.40;101302.50;7352249;19;20023;-63
2023/04/25 06:29:23;;;;;;;0.00;0.00;;;;;;;5.94;67.36;101303.47;7351543;19;20010;-63
2023/04/25 06:31:48;;;;;;;0.00;0.00;;;;;;;5.91;67.04;101293.94;7347908;19;20038;-63
2023/04/25 06:34:15;;;;;;;0.10;0.10;;;;;;;6.01;67.27;101307.81;7342561;19;20443;-63
2023/04/25 06:36:41;;;;;;;0.00;0.00;;;;;;;6.06;66.96;101308.72;7327349;19;20703;-63
2023/04/25 06:39:06;;;;;;;0.00;0.00;;;;;;;6.11;67.07;101311.34;7353832;19;20011;-63
2023/04/25 06:41:32;;;;;;;0.00;0.00;;;;;;;6.12;67.20;101305.28;7355339;19;20029;-63
2023/04/25 06:43:57;;;;;;;0.03;0.03;;;;;;;6.17;66.91;101306.19;7358422;19;20009;-63
2023/04/25 06:46:22;;;;;;;0.00;0.00;;;;;;;6.18;67.15;101300.13;7355544;19;20007;-63
2023/04/25 06:48:48;;;;;;;0.03;0.03;;;;;;;6.26;67.34;101307.97;7342850;19;20018;-63
2023/04/25 06:51:13;;;;;;;0.10;0.10;;;;;;;6.30;66.84;101301.94;7355129;19;20044;-63
2023/04/25 06:53:40;;;;;;;0.10;0.10;;;;;;;6.32;66.95;101310.56;7357764;19;20031;-63
2023/04/25 06:56:05;;;;;;;0.00;0.00;;;;;;;6.29;66.78;101295.88;7354065;19;20015;-67
2023/04/25 06:58:31;;;;;;;0.00;0.00;;;;;;;6.43;67.01;101309.75;7359496;19;20051;-67
2023/04/25 07:00:56;;;;;;;0.00;0.00;;;;;;;6.47;67.10;101311.50;7349638;19;20018;-68
2023/04/25 07:03:22;;;;;;;0.00;0.00;;;;;;;6.52;67.29;101308.06;7357108;19;20121;-68
2023/04/25 07:05:47;;;;;;;0.00;0.00;;;;;;;6.56;67.24;101299.44;7357767;19;20013;-69
2023/04/25 07:08:12;;;;;;;0.00;0.00;;;;;;;6.63;67.01;101311.56;7362467;19;20014;-69
2023/04/25 07:10:39;;;;;;;0.10;0.10;;;;;;;6.67;67.24;101303.78;7359468;19;20007;-68
2023/04/25 07:13:04;;;;;;;0.00;0.00;;;;;;;6.75;67.18;101301.22;7359020;19;20490;-68
2023/04/25 07:15:30;;;;;;;0.00;0.00;;;;;;;6.82;67.06;101300.38;7356202;19;20025;-68
2023/04/25 07:17:55;;;;;;;0.00;0.00;;;;;;;6.87;66.95;101296.06;7355920;19;20011;-68
2023/04/25 07:20:20;;;;;;;0.00;0.00;;;;;;;6.95;67.05;101294.34;7360672;19;20106;-68
2023/04/25 07:22:46;;;;;;;0.05;0.05;;;;;;;7.03;67.06;101297.81;7356126;19;20497;-69
2023/04/25 07:25:11;;;;;;;0.00;0.00;;;;;;;7.11;67.09;101307.34;7361223;19;20042;-69
2023/04/25 07:27:37;;;;;;;0.00;0.00;;;;;;;7.17;66.64;101304.75;7358992;19;20022;-68
2023/04/25 07:30:03;;;;;;;0.00;0.00;;;;;;;7.25;66.66;101314.31;7355125;19;20832;-69
2023/04/25 07:32:29;;;;;;;0.00;0.00;;;;;;;7.31;66.67;101318.63;7357754;19;20502;-68
2023/04/25 07:34:55;;;;;;;0.00;0.00;;;;;;;7.38;66.66;101314.28;7359190;19;20034;-68
2023/04/25 07:37:20;;;;;;;0.00;0.00;;;;;;;7.40;66.78;101308.25;7360704;19;20756;-68
2023/04/25 07:39:46;;;;;;;0.00;0.00;;;;;;;7.50;66.24;101314.28;7359426;19;20766;-68
2023/04/25 07:42:12;;;;;;;0.00;0.00;;;;;;;7.57;66.36;101320.38;7362292;19;20015;-68
2023/04/25 07:44:39;;;;;;;0.10;0.10;;;;;;;7.63;66.48;101312.56;7356287;19;20627;-69
2023/04/25 07:47:08;;;;;;;0.00;0.00;;;;;;;7.44;66.66;101270.97;7358205;19;20760;-69
2023/04/25 07:49:35;;;;;;;0.00;0.00;;;;;;;7.73;66.33;101316.88;7342261;19;20025;-69
2023/04/25 07:52:01;;;;;;;0.00;0.00;;;;;;;7.78;66.18;101320.34;7356804;19;20481;-68
2023/04/25 07:54:26;;;;;;;0.00;0.00;;;;;;;7.84;66.16;101314.25;7358565;19;20006;-69
2023/04/25 07:56:52;;;;;;;0.00;0.00;;;;;;;7.89;66.15;101315.97;7355907;19;20506;-69
2023/04/25 07:59:17;;;;;;;0.00;0.00;;;;;;;7.97;66.16;101315.97;7354478;19;20026;-68
2023/04/25 08:01:43;;;;;;;0.00;0.00;;;;;;;7.96;65.86;101307.31;7361779;19;20018;-68
2023/04/25 08:04:08;;;;;;;0.00;0.00;;;;;;;8.09;66.15;101320.28;7360182;19;20007;-68
2023/04/25 08:06:34;;;;;;;0.00;0.00;;;;;;;8.15;66.10;101312.44;7358370;19;20629;-68
2023/04/25 08:08:59;;;;;;;0.00;0.00;;;;;;;8.19;65.99;101311.56;7360080;19;20006;-68
2023/04/25 08:11:25;;;;;;;0.00;0.00;;;;;;;8.26;66.27;101318.47;7358308;19;20019;-68
2023/04/25 08:13:51;;;;;;;0.00;0.00;;;;;;;8.31;66.06;101315.00;7362115;19;20024;-68
2023/04/25 08:16:16;;;;;;;0.10;0.10;;;;;;;8.38;66.12;101315.88;7359341;19;20033;-68
2023/04/25 08:18:41;;;;;;;0.00;0.00;;;;;;;8.45;66.08;101319.31;7360496;19;20030;-68
2023/04/25 08:21:08;;;;;;;0.00;0.00;;;;;;;8.52;66.24;101321.91;7360525;19;20014;-69
2023/04/25 08:23:34;;;;;;;0.00;0.00;;;;;;;8.58;66.24;101321.00;7359858;19;20011;-68
2023/04/25 08:25:59;;;;;;;0.03;0.03;;;;;;;8.64;66.21;101320.97;7358901;19;20042;-68
2023/04/25 08:28:25;;;;;;;0.00;0.00;;;;;;;8.72;66.04;101323.56;7359561;19;20857;-68
2023/04/25 08:30:50;;;;;;;0.00;0.00;;;;;;;8.65;66.01;101307.06;7353713;19;20011;-68
2023/04/25 08:33:16;;;;;;;0.00;0.00;;;;;;;8.85;65.94;101322.59;7356821;19;20014;-68
2023/04/25 08:35:41;;;;;;;0.00;0.00;;;;;;;8.94;66.14;101326.91;7360461;19;20507;-69
2023/04/25 08:38:07;;;;;;;0.00;0.00;;;;;;;9.02;66.21;101327.69;7358984;19;20014;-68
2023/04/25 08:40:37;;;;;;;0.00;0.00;;;;;;;9.09;66.03;101330.25;7357898;19;20017;-68
2023/04/25 08:43:04;;;;;;;0.00;0.00;;;;;;;9.12;66.01;101316.34;7359979;19;20003;-68
2023/04/25 08:45:32;;;;;;;0.00;0.00;;;;;;;9.21;66.14;101315.41;7358479;19;20002;-68
2023/04/25 08:47:58;;;;;;;0.00;0.00;;;;;;;9.32;65.87;101326.63;7359174;19;20035;-69
2023/04/25 08:50:26;;;;;;;0.00;0.00;;;;;;;9.43;66.07;101335.25;7358777;19;20039;-68
2023/04/25 08:52:53;;;;;;;0.00;0.00;;;;;;;9.56;65.67;101326.44;7357661;19;20506;-68
2023/04/25 08:55:20;;;;;;;0.00;0.00;;;;;;;9.69;65.96;101323.72;7360018;19;20369;-68
2023/04/25 08:57:46;;;;;;;0.00;0.00;;;;;;;9.77;65.38;101327.13;7359801;19;20085;-68
2023/04/25 09:00:13;;;;;;;0.00;0.00;;;;;;;9.87;65.48;101324.41;7360805;19;20790;-68
2023/04/25 09:02:42;;;;;;;0.00;0.00;;;;;;;9.98;65.47;101329.50;7353365;19;20026;-68
2023/04/25 09:05:09;;;;;;;0.05;0.05;;;;;;;9.90;65.64;101310.47;7358279;19;20022;-68
2023/04/25 09:07:35;;;;;;;0.00;0.00;;;;;;;10.20;65.81;101330.16;7357474;19;20018;-68
2023/04/25 09:10:03;;;;;;;0.10;0.10;;;;;;;10.40;65.97;101316.91;7356815;19;20628;-68
2023/04/25 09:12:29;;;;;;;0.00;0.00;;;;;;;10.77;65.88;101321.66;7356805;19;20018;-68
2023/04/25 09:15:11;;;;;;;0.10;0.10;;;;;;;11.20;65.94;101321.03;7357658;19;20015;-68
2023/04/25 09:17:40;;;;;;;0.08;0.08;;;;;;;11.54;64.71;101331.81;7356423;19;20018;-68
2023/04/25 09:20:24;;;;;;;0.00;0.00;;;;;;;11.98;63.96;101327.63;7357782;19;20010;-68
2023/04/25 09:23:01;;;;;;;0.00;0.00;;;;;;;12.21;62.12;101328.03;7357659;19;20033;-68
2023/04/25 09:25:33;;;;;;;0.08;0.08;;;;;;;12.39;60.83;101321.56;7357185;19;20450;-68
2023/04/25 09:28:04;;;;;;;0.00;0.00;;;;;;;12.71;61.05;101327.00;7358559;19;20035;-68
2023/04/25 09:30:31;;;;;;;0.10;0.10;;;;;;;12.94;60.55;101318.63;7352666;19;20018;-68
2023/04/25 09:33:03;;;;;;;0.00;0.00;;;;;;;13.19;59.87;101324.19;7359271;19;20042;-68
2023/04/25 09:35:28;;;;;;;0.10;0.10;;;;;;;13.45;60.28;101320.09;7357416;19;20789;-68
2023/04/25 09:37:54;;;;;;;0.10;0.10;;;;;;;13.72;60.10;101324.63;7358277;19;20016;-68
2023/04/25 09:40:19;;;;;;;0.03;0.03;;;;;;;14.05;59.54;101316.78;7356495;19;20010;-68
2023/04/25 09:42:45;;;;;;;0.10;0.10;;;;;;;14.39;59.53;101318.44;7355796;19;20356;-68
2023/04/25 09:45:15;;;;;;;0.00;0.00;;;;;;;14.64;58.98;101311.59;7357934;19;20018;-68
2023/04/25 09:47:43;;;;;;;0.00;0.00;;;;;;;14.88;58.75;101320.53;7357181;19;20015;-68
2023/04/25 09:50:16;;;;;;;0.05;0.05;;;;;;;15.05;58.93;101306.84;7358802;19;20006;-68
2023/04/25 09:52:42;;;;;;;0.03;0.03;;;;;;;15.24;57.41;101328.19;7357694;19;20006;-68
2023/04/25 09:55:08;;;;;;;0.00;0.00;;;;;;;15.40;57.09;101331.16;7356758;19;20047;-69
2023/04/25 09:57:35;;;;;;;0.08;0.08;;;;;;;15.57;56.16;101334.13;7350713;19;20586;-68
2023/04/25 10:00:03;;;;;;;0.10;0.10;;;;;;;15.62;56.03;101337.47;7357724;19;20606;-68
2023/04/25 10:02:30;;;;;;;0.10;0.10;;;;;;;15.67;56.54;101335.56;7357724;19;20006;-68
2023/04/25 10:04:56;;;;;;;0.10;0.10;;;;;;;15.71;56.23;101333.69;7356644;19;20010;-68
2023/04/25 10:07:28;;;;;;;0.10;0.10;;;;;;;15.81;57.06;101333.34;7358567;19;20557;-68
2023/04/25 10:10:04;;;;;;;0.10;0.10;;;;;;;15.99;57.23;101328.34;7354595;19;20543;-68
2023/04/25 10:12:33;;;;;;;0.10;0.10;;;;;;;16.16;56.84;101325.09;7354981;19;20663;-68
2023/04/25 10:15:00;;;;;;;0.10;0.10;;;;;;;16.48;54.83;101337.13;7356936;19;20626;-68
2023/04/25 10:17:27;;;;;;;0.10;0.10;;;;;;;16.67;54.65;101327.56;7242667;19;21067;-68
2023/04/25 10:19:53;;;;;;;;;;;;;;;17.06;57.75;101341.03;7316686;19;20042;-68
2023/04/25 10:22:25;;;;;;;0.00;0.00;;;;;;;17.11;51.56;101333.81;7358397;19;19998;-65
2023/04/25 10:24:51;;;;;;;0.10;0.10;;;;;;;17.12;47.90;101334.66;7355241;19;20755;-67
2023/04/25 10:27:18;;;;;;;0.10;0.10;;;;;;;17.02;49.96;101325.38;7356098;19;20002;-68
2023/04/25 10:29:44;;;;;;;0.10;0.10;;;;;;;16.97;49.81;101328.19;7354249;19;20555;-67
2023/04/25 10:32:09;;;;;;;0.10;0.10;;;;;;;16.95;47.50;101327.41;7350233;19;20010;-68
2023/04/25 10:34:39;;;;;;;0.10;0.10;;;;;;;16.99;50.22;101330.81;7357071;19;20009;-67
2023/04/25 10:37:08;;;;;;;0.00;0.00;;;;;;;16.92;46.67;101329.31;7354675;19;20021;-67
2023/04/25 10:39:34;;;;;;;0.10;0.10;;;;;;;16.84;49.05;101324.34;7355048;19;20528;-68
2023/04/25 10:42:02;;;;;;;0.10;0.10;;;;;;;16.80;50.60;101323.59;7352561;19;20026;-68
2023/04/25 10:44:29;;;;;;;0.10;0.10;;;;;;;16.62;50.19;101313.69;7355464;19;20021;-67
2023/04/25 10:47:07;;;;;;;0.10;0.10;;;;;;;16.71;50.94;101331.84;7357187;19;20640;-68
2023/04/25 10:49:37;;;;;;;0.10;0.10;;;;;;;16.60;49.83;101320.81;7353997;19;20010;-68
2023/04/25 10:52:17;;;;;;;0.00;0.00;;;;;;;16.58;51.77;101333.22;7357435;19;20010;-67
2023/04/25 10:54:52;;;;;;;0.10;0.10;;;;;;;16.50;50.93;101340.53;7353467;19;20347;-68
2023/04/25 10:57:31;;;;;;;0.10;0.10;;;;;;;16.43;51.28;101336.44;7353476;19;20126;-68
2023/04/25 11:00:09;;;;;;;0.10;0.10;;;;;;;16.31;50.06;101337.72;7352763;19;20007;-67
2023/04/25 11:02:47;;;;;;;0.10;0.10;;;;;;;16.17;48.62;101346.13;7354068;19;20027;-67
2023/04/25 11:05:22;;;;;;;0.05;0.05;;;;;;;16.02;50.21;101338.78;7357544;19;20387;-67
2023/04/25 11:07:52;;;;;;;0.10;0.10;;;;;;;15.88;50.00;101335.75;7353848;19;20010;-67
2023/04/25 11:10:18;;;;;;;0.10;0.10;;;;;;;15.76;48.96;101342.28;7353937;19;20382;-67
2023/04/25 11:12:45;;;;;;;0.08;0.08;;;;;;;15.66;47.75;101331.22;7353895;19;20021;-67
2023/04/25 11:15:11;;;;;;;0.10;0.10;;;;;;;15.56;48.89;101335.91;7356237;19;20018;-67
2023/04/25 11:17:36;;;;;;;0.10;0.10;;;;;;;15.44;48.89;101335.44;7355560;19;20134;-68
2023/04/25 11:20:07;;;;;;;0.10;0.10;;;;;;;15.32;49.57;101332.28;7353527;19;20080;-68
2023/04/25 11:22:33;;;;;;;0.10;0.10;;;;;;;15.27;50.01;101338.63;7355594;19;20006;-67
2023/04/25 11:25:04;;;;;;;0.10;0.10;;;;;;;15.25;49.57;101340.41;7361925;19;20015;-67
2023/04/25 11:27:30;;;;;;;0.10;0.10;;;;;;;15.16;49.93;101336.34;7360005;19;20481;-67